Time;durP1;ratioP1;P1;durP2;ratioP2;P2;SDS_P1;SDS_P2;PMS_P1;PMS_P2;Temp;Humidity;BMP_temperature;BMP_pressure;BME280_temperature;BME280_humidity;BME280_pressure;Samples;Min_cycle;Max_cycle;Signal;HPM_P1;HPM_P2
2023/01/21 00:01:20;;;;;;;47.87;23.83;;;0.50;99.90;;;;;;5046602;28;20217;-66
2023/01/21 00:03:48;;;;;;;46.40;24.63;;;0.40;99.90;;;;;;5054470;28;20673;-66
2023/01/21 00:06:18;;;;;;;47.10;24.33;;;0.40;99.90;;;;;;5045481;28;20551;-65
2023/01/21 00:08:46;;;;;;;42.63;23.40;;;0.40;99.90;;;;;;5036803;28;20628;-65
2023/01/21 00:11:16;;;;;;;48.17;24.20;;;0.30;99.90;;;;;;5048387;28;20193;-66
2023/01/21 00:13:44;;;;;;;51.43;24.60;;;0.30;99.90;;;;;;5052606;28;20231;-65
2023/01/21 00:16:13;;;;;;;45.87;24.57;;;0.30;99.90;;;;;;5051896;28;20662;-65
2023/01/21 00:18:42;;;;;;;49.80;24.03;;;0.30;99.90;;;;;;5055016;28;20209;-65
2023/01/21 00:21:10;;;;;;;52.23;24.00;;;0.30;99.90;;;;;;5046792;28;20566;-65
2023/01/21 00:23:40;;;;;;;50.67;23.60;;;0.30;99.90;;;;;;5043824;28;20268;-66
2023/01/21 00:26:11;;;;;;;51.73;24.73;;;0.20;99.90;;;;;;5062840;28;20228;-66
2023/01/21 00:28:42;;;;;;;51.13;24.20;;;0.20;99.90;;;;;;5039313;28;20281;-66
2023/01/21 00:31:11;;;;;;;45.67;24.53;;;0.20;99.90;;;;;;5044775;28;20201;-67
2023/01/21 00:33:40;;;;;;;59.20;24.67;;;0.10;99.90;;;;;;5052230;28;20227;-66
2023/01/21 00:36:10;;;;;;;49.03;24.07;;;0.10;99.90;;;;;;5041434;28;20211;-66
2023/01/21 00:38:40;;;;;;;54.60;25.33;;;0.10;99.90;;;;;;5039755;28;20213;-66
2023/01/21 00:41:11;;;;;;;55.77;25.53;;;0.10;99.90;;;;;;5042531;28;20190;-66
2023/01/21 00:43:40;;;;;;;57.83;25.43;;;0.10;99.90;;;;;;5042551;28;20217;-66
2023/01/21 00:46:08;;;;;;;54.80;25.73;;;0.00;99.90;;;;;;5051421;28;20196;-66
2023/01/21 00:48:37;;;;;;;51.70;25.03;;;0.00;99.90;;;;;;5043919;28;20622;-66
2023/01/21 00:51:05;;;;;;;52.23;25.70;;;0.00;99.90;;;;;;5038397;28;20651;-66
2023/01/21 00:53:36;;;;;;;55.10;25.83;;;-0.10;99.90;;;;;;5049111;28;20197;-66
2023/01/21 00:56:09;;;;;;;55.83;26.07;;;-0.10;99.90;;;;;;5042809;28;20198;-66
2023/01/21 00:58:38;;;;;;;49.13;23.83;;;-0.10;99.90;;;;;;5045839;28;20279;-66
2023/01/21 01:01:08;;;;;;;51.50;24.20;;;-0.20;99.90;;;;;;5039000;28;20221;-66
2023/01/21 01:03:38;;;;;;;49.33;24.73;;;-0.40;99.90;;;;;;5048118;28;20201;-67
2023/01/21 01:06:10;;;;;;;54.40;26.50;;;-0.40;99.90;;;;;;5050201;28;20296;-66
2023/01/21 01:08:38;;;;;;;57.60;25.43;;;-0.40;99.90;;;;;;5053312;28;20231;-66
2023/01/21 01:11:08;;;;;;;58.13;25.40;;;-0.50;99.90;;;;;;5049327;28;20192;-66
2023/01/21 01:13:37;;;;;;;56.70;25.00;;;-0.60;99.90;;;;;;5050083;28;20217;-66
2023/01/21 01:16:06;;;;;;;59.93;26.37;;;-0.60;99.90;;;;;;5036667;28;20220;-66
2023/01/21 01:18:36;;;;;;;58.43;26.20;;;-0.70;99.90;;;;;;5047565;28;20220;-66
2023/01/21 01:21:06;;;;;;;58.67;25.07;;;-0.70;99.90;;;;;;5045180;28;20192;-66
2023/01/21 01:23:34;;;;;;;57.63;25.43;;;-0.80;99.90;;;;;;5052239;28;20193;-66
2023/01/21 01:26:04;;;;;;;63.37;26.33;;;-0.80;99.90;;;;;;5040725;28;20193;-66
2023/01/21 01:28:34;;;;;;;62.50;26.47;;;-0.80;99.90;;;;;;5051601;28;20215;-67
2023/01/21 01:31:05;;;;;;;66.30;29.13;;;-0.80;99.90;;;;;;5036840;28;20552;-67
2023/01/21 01:33:37;;;;;;;67.47;28.07;;;-0.80;99.90;;;;;;5049209;28;20215;-67
2023/01/21 01:36:07;;;;;;;68.73;29.20;;;-0.80;99.90;;;;;;5045218;28;20526;-67
2023/01/21 01:38:36;;;;;;;72.87;29.73;;;-0.70;99.90;;;;;;5050592;28;20212;-67
2023/01/21 01:41:05;;;;;;;73.07;29.93;;;-0.70;99.90;;;;;;5046770;28;20289;-67
2023/01/21 01:43:52;;;;;;;72.57;31.27;;;-0.70;99.90;;;;;;5033562;28;20197;-67
2023/01/21 01:46:22;;;;;;;74.57;30.13;;;-0.70;99.90;;;;;;5036554;28;20199;-67
2023/01/21 01:48:59;;;;;;;80.10;30.80;;;-0.70;99.90;;;;;;5039966;28;20735;-67
2023/01/21 01:51:34;;;;;;;71.67;30.57;;;-0.70;99.90;;;;;;5042864;28;20192;-67
2023/01/21 01:54:04;;;;;;;70.80;28.50;;;-0.70;99.90;;;;;;5045920;28;20195;-67
2023/01/21 01:56:34;;;;;;;78.97;31.17;;;-0.70;99.90;;;;;;5043696;28;20192;-67
2023/01/21 01:59:04;;;;;;;74.80;29.87;;;-0.70;99.90;;;;;;5050024;28;20540;-67
2023/01/21 02:01:33;;;;;;;75.70;31.43;;;-0.70;99.90;;;;;;5044392;28;20221;-67
2023/01/21 02:04:04;;;;;;;69.10;29.37;;;-0.70;99.90;;;;;;5047040;28;20196;-67
2023/01/21 02:06:33;;;;;;;73.30;29.17;;;-0.60;99.90;;;;;;5048020;28;20235;-67
2023/01/21 02:09:02;;;;;;;81.37;29.47;;;-0.60;99.90;;;;;;5033074;28;20201;-67
2023/01/21 02:11:31;;;;;;;75.40;29.27;;;-0.60;99.90;;;;;;5040607;28;20204;-67
2023/01/21 02:14:00;;;;;;;67.57;27.93;;;-0.60;99.90;;;;;;5043037;28;20228;-67
2023/01/21 02:17:05;;;;;;;68.13;27.50;;;-0.60;99.90;;;;;;5036405;28;20197;-67
2023/01/21 02:20:03;;;;;;;74.33;27.50;;;-0.70;99.90;;;;;;5044835;28;20512;-67
2023/01/21 02:22:37;;;;;;;68.13;26.97;;;-0.80;99.90;;;;;;5035944;28;20201;-67
2023/01/21 02:25:41;;;;;;;68.53;27.67;;;-0.80;99.90;;;;;;5042604;28;20682;-67
2023/01/21 02:29:02;;;;;;;67.37;27.27;;;-0.90;99.90;;;;;;5045128;28;20199;-67
2023/01/21 02:31:52;;;;;;;71.57;27.50;;;-0.90;99.90;;;;;;4988678;28;20745;-67
2023/01/21 02:34:33;;;;;;;71.27;27.63;;;-1.00;99.90;;;;;;4988707;28;20644;-67
2023/01/21 02:37:09;;;;;;;73.43;28.50;;;-0.90;99.90;;;;;;5021568;28;20216;-67
2023/01/21 02:40:05;;;;;;;80.07;29.00;;;-0.90;99.90;;;;;;5038770;28;20794;-67
2023/01/21 02:42:42;;;;;;;76.50;28.40;;;-0.90;99.90;;;;;;5035036;28;20204;-67
2023/01/21 02:45:17;;;;;;;77.80;28.70;;;-0.90;99.90;;;;;;5046566;28;20199;-67
2023/01/21 02:47:53;;;;;;;69.53;28.23;;;-1.00;99.90;;;;;;5041707;28;20195;-67
2023/01/21 02:50:26;;;;;;;73.63;27.40;;;-1.00;99.90;;;;;;5043096;28;20189;-67
2023/01/21 02:53:01;;;;;;;76.20;28.57;;;-1.20;99.90;;;;;;5046071;28;20201;-67
2023/01/21 02:55:32;;;;;;;65.20;27.57;;;-1.20;99.90;;;;;;5043568;28;20188;-67
2023/01/21 02:58:02;;;;;;;66.93;27.17;;;-1.30;99.90;;;;;;5045032;28;20199;-67
2023/01/21 03:00:48;;;;;;;72.17;26.80;;;-1.30;99.90;;;;;;5040673;28;20316;-67
2023/01/21 03:03:40;;;;;;;77.23;28.77;;;-1.30;99.90;;;;;;5030824;28;20212;-67
2023/01/21 03:06:49;;;;;;;73.43;28.87;;;-1.40;99.90;;;;;;5044065;28;20188;-67
2023/01/21 03:09:22;;;;;;;78.17;28.37;;;-1.50;99.90;;;;;;5041348;28;20208;-67
2023/01/21 03:12:01;;;;;;;71.70;29.73;;;-1.50;99.90;;;;;;5031153;28;20217;-67
2023/01/21 03:17:27;;;;;;;78.10;28.27;;;-1.60;99.90;;;;;;5027133;28;20281;-68
2023/01/21 03:20:03;;;;;;;75.30;28.43;;;-1.70;99.90;;;;;;5021682;28;20216;-67
2023/01/21 03:22:35;;;;;;;78.03;29.03;;;-1.70;99.90;;;;;;5013074;28;20280;-67
2023/01/21 03:25:05;;;;;;;75.67;28.60;;;-1.70;99.90;;;;;;5037047;28;20219;-67
2023/01/21 03:27:38;;;;;;;81.10;28.67;;;-1.70;99.90;;;;;;5018542;28;20207;-67
2023/01/21 03:30:13;;;;;;;85.53;28.57;;;-1.80;99.90;;;;;;5031910;28;20189;-67
2023/01/21 03:32:42;;;;;;;86.03;29.97;;;-1.80;99.90;;;;;;5032636;28;20200;-67
2023/01/21 03:35:16;;;;;;;82.53;30.23;;;-1.80;99.90;;;;;;5032997;28;20198;-67
2023/01/21 03:37:48;;;;;;;82.77;29.30;;;-1.70;99.90;;;;;;5032847;28;20213;-67
2023/01/21 03:40:22;;;;;;;86.67;30.53;;;-1.80;99.90;;;;;;5032913;28;20245;-67
2023/01/21 03:42:52;;;;;;;76.17;29.50;;;-1.70;99.90;;;;;;5033010;28;20194;-67
2023/01/21 03:45:30;;;;;;;90.87;31.30;;;-1.70;99.90;;;;;;5031362;28;20255;-67
2023/01/21 03:48:04;;;;;;;86.10;30.47;;;-1.70;99.90;;;;;;5017724;28;20221;-67
2023/01/21 03:50:38;;;;;;;83.80;30.20;;;-1.80;99.90;;;;;;5013411;28;20190;-67
2023/01/21 03:53:08;;;;;;;84.03;29.80;;;-1.80;99.90;;;;;;5013306;28;20502;-67
2023/01/21 03:55:36;;;;;;;86.10;29.80;;;-1.80;99.90;;;;;;5014203;28;20200;-67
2023/01/21 03:58:04;;;;;;;90.07;30.17;;;-1.80;99.90;;;;;;5013170;28;20194;-66
2023/01/21 04:00:32;;;;;;;92.27;31.13;;;-1.90;99.90;;;;;;5013087;28;20214;-67
2023/01/21 04:03:01;;;;;;;85.03;31.53;;;-1.80;99.90;;;;;;5017449;28;20652;-65
2023/01/21 04:05:30;;;;;;;97.30;31.87;;;-1.80;99.90;;;;;;5030626;28;20197;-65
2023/01/21 04:07:58;;;;;;;98.27;31.67;;;-1.80;99.90;;;;;;5024437;28;20234;-65
2023/01/21 04:10:28;;;;;;;91.53;30.90;;;-1.80;99.90;;;;;;5021613;28;20199;-65
2023/01/21 04:12:56;;;;;;;102.00;32.30;;;-1.90;99.90;;;;;;5029062;28;20198;-65
2023/01/21 04:15:25;;;;;;;94.33;32.73;;;-1.80;99.90;;;;;;5014136;28;20195;-65
2023/01/21 04:17:53;;;;;;;101.43;32.77;;;-1.80;99.90;;;;;;5028849;28;20280;-65
2023/01/21 04:20:22;;;;;;;97.10;32.67;;;-1.80;99.90;;;;;;5026621;28;20626;-65
2023/01/21 04:22:50;;;;;;;92.83;32.23;;;-1.80;99.90;;;;;;5025849;28;20206;-65
2023/01/21 04:25:18;;;;;;;103.47;33.83;;;-1.80;99.90;;;;;;5023840;28;20190;-65
2023/01/21 04:27:48;;;;;;;94.43;31.83;;;-1.80;99.90;;;;;;5018977;28;20213;-65
2023/01/21 04:30:17;;;;;;;93.37;31.70;;;-1.70;99.90;;;;;;5040525;28;20198;-65
2023/01/21 04:32:46;;;;;;;94.20;31.80;;;-1.70;99.90;;;;;;5022889;28;20648;-65
2023/01/21 04:35:14;;;;;;;91.70;31.53;;;-1.70;99.90;;;;;;5034389;28;20687;-65
2023/01/21 04:37:43;;;;;;;90.80;30.80;;;-1.80;99.90;;;;;;5019865;28;20197;-65
2023/01/21 04:40:12;;;;;;;100.80;31.93;;;-1.80;99.90;;;;;;5021758;28;20217;-65
2023/01/21 04:42:42;;;;;;;90.23;32.03;;;-1.80;99.90;;;;;;5021271;28;20583;-64
2023/01/21 04:45:12;;;;;;;97.27;32.77;;;-1.90;99.90;;;;;;5027785;28;20194;-65
2023/01/21 04:47:41;;;;;;;94.27;32.10;;;-1.80;99.90;;;;;;5025529;28;20219;-65
2023/01/21 04:50:11;;;;;;;96.37;32.37;;;-1.90;99.90;;;;;;5029966;28;20198;-65
2023/01/21 04:52:40;;;;;;;101.67;33.53;;;-1.90;99.90;;;;;;5030738;28;20228;-64
2023/01/21 04:55:10;;;;;;;98.83;33.73;;;-1.90;99.90;;;;;;5030415;28;20197;-64
2023/01/21 04:57:38;;;;;;;92.23;31.27;;;-1.90;99.90;;;;;;5030013;28;20227;-64
2023/01/21 05:00:09;;;;;;;97.27;32.10;;;-1.90;99.90;;;;;;5026690;28;20221;-64
2023/01/21 05:02:39;;;;;;;103.67;32.93;;;-2.00;99.90;;;;;;5023952;28;20338;-64
2023/01/21 05:05:08;;;;;;;97.97;31.67;;;-2.00;99.90;;;;;;5029072;28;20190;-64
2023/01/21 05:07:36;;;;;;;88.83;33.13;;;-2.00;99.90;;;;;;5020076;28;20708;-65
2023/01/21 05:10:05;;;;;;;85.10;32.13;;;-1.90;99.90;;;;;;5024297;28;20224;-64
2023/01/21 05:12:33;;;;;;;100.57;33.73;;;-1.90;99.90;;;;;;5044289;28;20201;-65
2023/01/21 05:15:01;;;;;;;105.80;35.57;;;-1.80;99.90;;;;;;5029014;28;20193;-64
2023/01/21 05:17:30;;;;;;;103.43;33.40;;;-1.70;99.90;;;;;;5048159;28;20205;-64
2023/01/21 05:20:00;;;;;;;106.60;34.03;;;-1.80;99.90;;;;;;5020730;28;20193;-64
2023/01/21 05:22:28;;;;;;;110.43;33.37;;;-1.80;99.90;;;;;;5025418;28;20217;-64
2023/01/21 05:24:58;;;;;;;103.30;33.90;;;-1.90;99.90;;;;;;5029273;28;20198;-64
2023/01/21 05:27:26;;;;;;;105.73;32.90;;;-1.90;99.90;;;;;;5024113;28;20202;-64
2023/01/21 05:29:55;;;;;;;102.03;33.63;;;-1.90;99.90;;;;;;5015002;28;20202;-64
2023/01/21 05:32:24;;;;;;;100.27;33.27;;;-2.00;99.90;;;;;;5024162;28;20190;-64
2023/01/21 05:34:52;;;;;;;89.80;33.50;;;-2.00;99.90;;;;;;5021562;28;20209;-64
2023/01/21 05:37:22;;;;;;;112.37;34.67;;;-1.90;99.90;;;;;;5025888;28;21627;-64
2023/01/21 05:39:50;;;;;;;96.23;34.17;;;-1.90;99.90;;;;;;5028986;28;20190;-64
2023/01/21 05:42:18;;;;;;;98.37;33.80;;;-2.00;99.90;;;;;;5016048;28;20213;-64
2023/01/21 05:44:52;;;;;;;110.80;34.33;;;-2.10;99.90;;;;;;5023123;28;20663;-64
2023/01/21 05:47:20;;;;;;;104.20;35.30;;;-2.10;99.90;;;;;;5029525;28;20204;-64
2023/01/21 05:49:48;;;;;;;101.83;33.87;;;-2.20;99.90;;;;;;5030330;28;20536;-64
2023/01/21 05:52:17;;;;;;;99.43;33.83;;;-2.20;99.90;;;;;;5023397;28;20284;-64
2023/01/21 05:54:46;;;;;;;110.47;33.80;;;-2.10;99.90;;;;;;5022665;28;20209;-64
2023/01/21 05:57:28;;;;;;;107.27;34.27;;;-2.10;99.90;;;;;;5026252;28;20247;-64
2023/01/21 05:59:57;;;;;;;106.13;33.73;;;-2.10;99.90;;;;;;5023136;28;20231;-64
2023/01/21 06:02:26;;;;;;;117.20;36.57;;;-2.00;99.90;;;;;;5017085;28;20212;-64
2023/01/21 06:04:54;;;;;;;108.67;33.97;;;-2.00;99.90;;;;;;5026492;28;20605;-64
2023/01/21 06:07:23;;;;;;;113.93;34.57;;;-1.80;99.90;;;;;;5046120;28;20222;-64
2023/01/21 06:09:52;;;;;;;103.67;34.43;;;-1.90;99.90;;;;;;5018266;28;20203;-64
2023/01/21 06:12:20;;;;;;;108.83;35.03;;;-1.90;99.90;;;;;;5020271;28;20540;-64
2023/01/21 06:14:52;;;;;;;94.37;32.50;;;-2.00;99.90;;;;;;5019457;28;20202;-64
2023/01/21 06:17:20;;;;;;;112.03;34.60;;;-2.10;99.90;;;;;;5019584;28;20202;-64
2023/01/21 06:19:48;;;;;;;114.73;34.07;;;-2.10;99.90;;;;;;5020477;28;20200;-64
2023/01/21 06:22:18;;;;;;;107.97;33.63;;;-2.20;99.90;;;;;;5025883;28;20220;-64
2023/01/21 06:24:46;;;;;;;106.27;35.03;;;-2.20;99.90;;;;;;5017566;28;20217;-64
2023/01/21 06:27:17;;;;;;;107.13;35.53;;;-2.20;99.90;;;;;;5020508;28;20212;-64
2023/01/21 06:29:45;;;;;;;117.07;37.23;;;-2.10;99.90;;;;;;5017978;28;21132;-64
2023/01/21 06:32:14;;;;;;;110.73;34.87;;;-2.10;99.90;;;;;;5021297;28;20209;-63
2023/01/21 06:34:42;;;;;;;115.30;34.80;;;-2.10;99.90;;;;;;5014196;28;20206;-64
2023/01/21 06:37:13;;;;;;;114.67;34.37;;;-2.10;99.90;;;;;;5029504;28;20275;-64
2023/01/21 06:39:41;;;;;;;103.67;33.40;;;-2.20;99.90;;;;;;5019017;28;20205;-63
2023/01/21 06:42:10;;;;;;;105.03;34.43;;;-2.20;99.90;;;;;;5026726;28;20224;-63
2023/01/21 06:44:39;;;;;;;101.57;33.30;;;-2.20;99.90;;;;;;5021558;28;20202;-63
2023/01/21 06:47:08;;;;;;;113.47;34.73;;;-2.30;99.90;;;;;;5018414;28;20656;-64
2023/01/21 06:49:36;;;;;;;97.37;32.63;;;-2.30;99.90;;;;;;5020674;28;20252;-63
2023/01/21 06:52:05;;;;;;;118.40;34.97;;;-2.40;99.90;;;;;;5028045;28;20211;-63
2023/01/21 06:54:34;;;;;;;100.93;32.63;;;-2.40;99.90;;;;;;5025511;28;20251;-64
2023/01/21 06:57:02;;;;;;;101.07;31.87;;;-2.30;99.90;;;;;;5021760;28;20201;-64
2023/01/21 06:59:30;;;;;;;106.80;33.87;;;-2.40;99.90;;;;;;5020678;28;20288;-63
2023/01/21 07:02:00;;;;;;;112.13;34.70;;;-2.40;99.90;;;;;;5023515;28;20225;-63
2023/01/21 07:04:28;;;;;;;108.07;33.67;;;-2.40;99.90;;;;;;5018989;28;20197;-63
2023/01/21 07:06:58;;;;;;;101.90;33.30;;;-2.40;99.90;;;;;;5019107;28;20225;-63
2023/01/21 07:09:26;;;;;;;112.03;33.47;;;-2.40;99.90;;;;;;5023387;28;24226;-63
2023/01/21 07:11:55;;;;;;;103.07;34.70;;;-2.40;99.90;;;;;;5026525;28;20193;-63
2023/01/21 07:14:23;;;;;;;115.07;37.43;;;-2.40;99.90;;;;;;5023404;28;20209;-63
2023/01/21 07:16:55;;;;;;;105.50;33.90;;;-2.40;99.90;;;;;;5016230;28;20213;-63
2023/01/21 07:19:25;;;;;;;108.50;34.27;;;-2.40;99.90;;;;;;5011043;28;20209;-64
2023/01/21 07:21:54;;;;;;;114.50;34.43;;;-2.40;99.90;;;;;;5019216;28;20704;-64
2023/01/21 07:24:22;;;;;;;105.57;34.43;;;-2.40;99.90;;;;;;5020245;28;20200;-63
2023/01/21 07:26:51;;;;;;;109.70;34.43;;;-2.40;99.90;;;;;;5026716;28;20204;-63
2023/01/21 07:29:21;;;;;;;103.60;33.47;;;-2.50;99.90;;;;;;5021050;28;20207;-63
2023/01/21 07:31:50;;;;;;;105.43;32.67;;;-2.50;99.90;;;;;;5020026;28;20205;-63
2023/01/21 07:34:18;;;;;;;118.67;37.00;;;-2.50;99.90;;;;;;5019223;28;20190;-63
2023/01/21 07:36:48;;;;;;;116.07;35.80;;;-2.30;99.90;;;;;;5018810;28;20189;-63
2023/01/21 07:39:16;;;;;;;112.70;35.97;;;-2.40;99.90;;;;;;5026061;28;20281;-63
2023/01/21 07:41:47;;;;;;;117.30;35.57;;;-2.40;99.90;;;;;;5019787;28;20201;-63
2023/01/21 07:44:15;;;;;;;132.90;40.50;;;-2.40;99.90;;;;;;5016728;28;20565;-63
2023/01/21 07:46:44;;;;;;;121.93;36.97;;;-2.50;99.90;;;;;;5018632;28;20568;-63
2023/01/21 07:49:16;;;;;;;131.10;38.80;;;-2.50;99.90;;;;;;5022402;28;20556;-63
2023/01/21 07:51:45;;;;;;;111.83;35.27;;;-2.50;99.90;;;;;;5024673;28;21780;-63
2023/01/21 07:54:15;;;;;;;112.73;35.50;;;-2.50;99.90;;;;;;5027247;28;20232;-63
2023/01/21 07:56:43;;;;;;;113.27;35.50;;;-2.50;99.90;;;;;;5019050;28;20208;-63
2023/01/21 07:59:13;;;;;;;110.33;34.50;;;-2.40;99.90;;;;;;5024039;28;20228;-63
2023/01/21 08:01:42;;;;;;;105.10;35.30;;;-2.40;99.90;;;;;;5018504;28;20395;-63
2023/01/21 08:04:10;;;;;;;104.97;34.33;;;-2.40;99.90;;;;;;5026089;28;20225;-63
2023/01/21 08:06:40;;;;;;;112.43;35.40;;;-2.40;99.90;;;;;;5038441;28;20264;-63
2023/01/21 08:09:09;;;;;;;111.57;33.97;;;-2.40;99.90;;;;;;5018713;28;20196;-63
2023/01/21 08:11:39;;;;;;;109.10;34.53;;;-2.40;99.90;;;;;;5016846;28;20213;-63
2023/01/21 08:14:07;;;;;;;111.90;36.77;;;-2.40;99.90;;;;;;5018197;28;20781;-63
2023/01/21 08:16:36;;;;;;;108.70;35.77;;;-2.40;99.90;;;;;;5019514;28;20191;-63
2023/01/21 08:19:04;;;;;;;114.67;35.20;;;-2.30;99.90;;;;;;5025937;28;20258;-63
2023/01/21 08:21:32;;;;;;;118.30;35.43;;;-2.20;99.90;;;;;;5020377;28;20201;-63
2023/01/21 08:24:00;;;;;;;112.40;34.37;;;-2.20;99.90;;;;;;5021190;28;20591;-63
2023/01/21 08:26:29;;;;;;;107.20;34.30;;;-2.10;99.90;;;;;;5029864;28;20564;-63
2023/01/21 08:28:59;;;;;;;115.33;38.07;;;-2.00;99.90;;;;;;5029095;28;20189;-63
2023/01/21 08:31:27;;;;;;;115.97;38.10;;;-2.00;99.90;;;;;;5018172;28;20537;-63
2023/01/21 08:33:56;;;;;;;115.83;38.67;;;-2.00;99.90;;;;;;5024314;28;20218;-63
2023/01/21 08:36:25;;;;;;;118.50;39.70;;;-2.00;99.90;;;;;;5040958;28;20205;-63
2023/01/21 08:38:53;;;;;;;113.47;37.07;;;-1.90;99.90;;;;;;5028482;28;20194;-63
2023/01/21 08:41:21;;;;;;;122.53;36.70;;;-1.90;99.90;;;;;;5020989;28;20198;-63
2023/01/21 08:43:50;;;;;;;118.50;37.33;;;-1.90;99.90;;;;;;5022603;28;20568;-63
2023/01/21 08:46:21;;;;;;;114.93;37.00;;;-1.80;99.90;;;;;;5030890;28;20205;-63
2023/01/21 08:48:50;;;;;;;111.40;36.00;;;-1.70;99.90;;;;;;5020206;28;20211;-63
2023/01/21 08:51:18;;;;;;;119.53;37.83;;;-1.70;99.90;;;;;;5015779;28;20667;-63
2023/01/21 08:53:49;;;;;;;119.77;36.33;;;-1.60;99.90;;;;;;5020975;28;20186;-63
2023/01/21 08:56:18;;;;;;;124.97;38.10;;;-1.60;99.90;;;;;;5017722;28;20202;-63
2023/01/21 08:58:46;;;;;;;116.67;38.13;;;-1.50;99.90;;;;;;5021695;28;20201;-63
2023/01/21 09:01:15;;;;;;;121.17;36.67;;;-1.40;99.90;;;;;;5034273;28;20217;-63
2023/01/21 09:03:45;;;;;;;131.07;42.50;;;-1.40;99.90;;;;;;5026494;28;20246;-63
2023/01/21 09:06:13;;;;;;;141.80;47.27;;;-1.40;99.90;;;;;;5015741;28;20569;-63
2023/01/21 09:08:41;;;;;;;130.00;41.20;;;-1.30;99.90;;;;;;5034385;28;20584;-63
2023/01/21 09:11:10;;;;;;;118.63;38.90;;;-1.30;99.90;;;;;;5020232;28;20204;-63
2023/01/21 09:13:39;;;;;;;110.70;35.43;;;-1.20;99.90;;;;;;5018590;28;20212;-63
2023/01/21 09:16:12;;;;;;;102.80;35.10;;;-1.10;99.90;;;;;;5025363;28;20189;-63
2023/01/21 09:18:41;;;;;;;102.40;35.47;;;-1.00;99.90;;;;;;5027369;28;20620;-63
2023/01/21 09:21:11;;;;;;;108.40;36.70;;;-0.90;99.90;;;;;;5030212;28;20199;-63
2023/01/21 09:23:41;;;;;;;108.00;36.57;;;-0.80;99.90;;;;;;5026552;28;20225;-63
2023/01/21 09:26:14;;;;;;;103.00;35.03;;;-0.70;99.90;;;;;;5034053;28;20199;-63
2023/01/21 09:28:45;;;;;;;102.83;35.07;;;-0.50;99.90;;;;;;5030732;28;20249;-63
2023/01/21 09:31:15;;;;;;;107.07;36.33;;;-0.40;99.90;;;;;;5028321;28;20280;-63
2023/01/21 09:33:47;;;;;;;98.47;36.37;;;-0.30;99.90;;;;;;5027666;28;20197;-63
2023/01/21 09:36:20;;;;;;;97.13;35.00;;;-0.20;99.90;;;;;;5020230;28;20202;-63
2023/01/21 09:38:49;;;;;;;83.33;31.80;;;-0.10;99.90;;;;;;5018056;28;20224;-63
2023/01/21 09:41:24;;;;;;;84.57;30.73;;;0.00;99.90;;;;;;5027973;28;20197;-61
2023/01/21 09:44:01;;;;;;;73.70;30.10;;;0.10;99.90;;;;;;5019707;28;20234;-62
2023/01/21 09:46:38;;;;;;;75.53;30.33;;;0.30;99.90;;;;;;5028223;28;20303;-61
2023/01/21 09:49:13;;;;;;;68.40;30.07;;;0.50;99.90;;;;;;5023317;28;20197;-62
2023/01/21 09:51:47;;;;;;;68.93;29.13;;;0.80;99.90;;;;;;5022945;28;20200;-62
2023/01/21 09:54:25;;;;;;;65.00;27.37;;;1.00;99.90;;;;;;5025642;28;20662;-62
2023/01/21 09:57:10;;;;;;;63.47;26.53;;;1.20;99.90;;;;;;5024212;28;20189;-62
2023/01/21 09:59:51;;;;;;;58.07;25.87;;;1.20;99.90;;;;;;5023231;28;20663;-62
2023/01/21 10:02:27;;;;;;;60.00;26.10;;;1.40;99.90;;;;;;5037517;28;20190;-62
2023/01/21 10:05:16;;;;;;;57.13;25.97;;;1.60;99.90;;;;;;5028600;28;20594;-62
2023/01/21 10:07:52;;;;;;;54.77;24.80;;;1.90;99.90;;;;;;5030286;28;20232;-62
2023/01/21 10:10:28;;;;;;;59.77;24.63;;;2.20;99.90;;;;;;5022428;28;20667;-62
2023/01/21 10:13:13;;;;;;;54.10;25.17;;;2.30;99.90;;;;;;5027510;28;20528;-63
2023/01/21 10:15:59;;;;;;;56.00;24.20;;;2.50;99.90;;;;;;5021146;28;20208;-62
2023/01/21 10:18:31;;;;;;;57.20;24.17;;;2.80;99.90;;;;;;5012707;28;20212;-62
2023/01/21 10:21:05;;;;;;;48.13;23.53;;;2.90;99.90;;;;;;5013914;28;20205;-63
2023/01/21 10:23:41;;;;;;;56.03;23.57;;;3.10;99.90;;;;;;5021529;28;20304;-63
2023/01/21 10:26:12;;;;;;;44.67;22.27;;;3.40;99.90;;;;;;5025449;28;20284;-63
2023/01/21 10:28:47;;;;;;;51.13;24.63;;;3.70;99.90;;;;;;5031979;28;20189;-63
2023/01/21 10:31:20;;;;;;;51.93;24.37;;;3.70;99.90;;;;;;5023219;28;20193;-63
2023/01/21 10:33:49;;;;;;;51.30;23.57;;;3.70;99.90;;;;;;5026609;28;20205;-63
2023/01/21 10:36:39;;;;;;;52.60;24.30;;;3.70;99.90;;;;;;5024029;28;20198;-62
2023/01/21 10:39:21;;;;;;;45.87;22.83;;;3.90;99.90;;;;;;5018454;28;20703;-63
2023/01/21 10:41:59;;;;;;;48.80;23.63;;;4.00;99.90;;;;;;5017981;28;20680;-63
2023/01/21 10:44:38;;;;;;;51.07;24.87;;;4.20;99.90;;;;;;5039178;28;20202;-63
2023/01/21 10:47:15;;;;;;;58.50;25.77;;;4.20;99.90;;;;;;5015641;28;21551;-63
2023/01/21 10:49:54;;;;;;;45.20;22.47;;;4.30;99.90;;;;;;5021458;28;20284;-63
2023/01/21 10:52:28;;;;;;;48.77;23.67;;;4.50;99.90;;;;;;5022243;28;20737;-64
2023/01/21 10:55:05;;;;;;;47.53;23.77;;;4.70;99.90;;;;;;5026437;28;21605;-63
2023/01/21 10:57:46;;;;;;;55.13;24.03;;;4.60;99.90;;;;;;5017845;28;20697;-63
2023/01/21 11:00:20;;;;;;;46.53;23.93;;;4.60;99.90;;;;;;5016843;28;20217;-63
2023/01/21 11:03:14;;;;;;;53.63;25.37;;;4.60;99.90;;;;;;5023678;28;20193;-63
2023/01/21 11:05:43;;;;;;;55.73;24.77;;;4.40;99.90;;;;;;5017899;28;20225;-63
2023/01/21 11:08:20;;;;;;;53.80;25.97;;;4.20;99.90;;;;;;5021374;28;20256;-63
2023/01/21 11:10:54;;;;;;;47.93;24.17;;;4.20;99.90;;;;;;5022250;28;20194;-62
2023/01/21 11:13:23;;;;;;;51.93;24.80;;;4.20;99.90;;;;;;5021271;28;20212;-63
2023/01/21 11:15:53;;;;;;;44.77;23.00;;;4.10;99.90;;;;;;5029982;28;20197;-63
2023/01/21 11:18:27;;;;;;;47.97;22.73;;;4.20;99.90;;;;;;5015832;28;20202;-62
2023/01/21 11:20:59;;;;;;;46.43;22.90;;;4.00;99.90;;;;;;5031076;28;20288;-63
2023/01/21 11:23:29;;;;;;;52.10;23.53;;;3.90;99.90;;;;;;5020910;28;20190;-63
2023/01/21 11:26:04;;;;;;;43.90;22.00;;;3.70;99.90;;;;;;5022338;28;20270;-63
2023/01/21 11:28:33;;;;;;;54.70;25.30;;;4.00;99.90;;;;;;5025665;28;20683;-63
2023/01/21 11:31:10;;;;;;;47.97;24.17;;;4.40;99.90;;;;;;5017344;28;20664;-63
2023/01/21 11:33:40;;;;;;;56.30;27.67;;;4.60;99.90;;;;;;5026080;28;20205;-63
2023/01/21 11:36:14;;;;;;;51.27;24.90;;;4.80;99.90;;;;;;5022597;28;20268;-64
2023/01/21 11:38:44;;;;;;;50.70;23.77;;;5.00;99.90;;;;;;5022511;28;20200;-63
2023/01/21 11:41:20;;;;;;;43.67;22.80;;;5.00;99.90;;;;;;5015201;28;20272;-64
2023/01/21 11:43:51;;;;;;;44.00;23.37;;;5.20;99.90;;;;;;5020217;28;20540;-64
2023/01/21 11:46:33;;;;;;;46.57;23.00;;;5.10;99.90;;;;;;5024097;28;20546;-64
2023/01/21 11:49:26;;;;;;;40.87;21.90;;;5.20;99.90;;;;;;5026879;28;20735;-64
2023/01/21 11:52:17;;;;;;;46.77;22.40;;;5.10;99.90;;;;;;5017664;28;20194;-64
2023/01/21 11:54:47;;;;;;;50.37;23.70;;;5.30;99.90;;;;;;5021183;28;20618;-64
2023/01/21 11:57:28;;;;;;;39.97;21.23;;;5.20;99.90;;;;;;5022761;28;20190;-64
2023/01/21 12:00:06;;;;;;;45.00;23.00;;;5.30;99.90;;;;;;5016721;28;20201;-64
2023/01/21 12:02:38;;;;;;;45.23;23.90;;;5.20;99.90;;;;;;5023896;28;20721;-64
2023/01/21 12:05:14;;;;;;;44.57;23.43;;;5.20;99.90;;;;;;5025313;28;20241;-65
2023/01/21 12:07:47;;;;;;;44.07;22.23;;;5.30;99.90;;;;;;5025721;28;20225;-64
2023/01/21 12:10:29;;;;;;;45.23;22.80;;;5.30;99.90;;;;;;5019741;28;20200;-64
2023/01/21 12:13:18;;;;;;;44.07;22.23;;;5.40;99.90;;;;;;5025757;28;20193;-64
2023/01/21 12:16:12;;;;;;;41.90;21.33;;;5.40;99.90;;;;;;5022983;28;20203;-65
2023/01/21 12:19:02;;;;;;;42.47;22.23;;;5.30;99.90;;;;;;5025417;28;20259;-64
2023/01/21 12:21:43;;;;;;;46.97;24.13;;;5.20;99.90;;;;;;5022229;28;20206;-64
2023/01/21 12:24:23;;;;;;;38.20;20.67;;;5.00;99.90;;;;;;5017442;28;20768;-64
2023/01/21 12:27:03;;;;;;;39.93;20.87;;;5.00;99.90;;;;;;5013608;28;20221;-64
2023/01/21 12:29:48;;;;;;;40.00;20.60;;;4.80;99.90;;;;;;5013834;28;20206;-63
2023/01/21 12:32:23;;;;;;;39.57;19.93;;;4.60;99.90;;;;;;5016309;28;20197;-64
2023/01/21 12:34:58;;;;;;;41.17;21.13;;;4.80;99.90;;;;;;5013371;28;20189;-64
2023/01/21 12:37:31;;;;;;;41.73;20.43;;;4.60;99.90;;;;;;5018371;28;20216;-64
2023/01/21 12:40:12;;;;;;;38.97;19.07;;;4.50;99.90;;;;;;5011518;28;20190;-64
2023/01/21 12:42:45;;;;;;;35.27;17.80;;;4.60;99.90;;;;;;4998184;28;20212;-64
2023/01/21 12:45:20;;;;;;;36.57;18.63;;;4.60;99.90;;;;;;5013361;28;20206;-63
2023/01/21 12:47:56;;;;;;;38.33;19.13;;;4.50;99.90;;;;;;5026147;28;20750;-63
2023/01/21 12:50:30;;;;;;;39.70;19.27;;;4.60;99.90;;;;;;5032629;28;20254;-64
2023/01/21 12:53:10;;;;;;;40.63;20.50;;;4.80;99.90;;;;;;5023564;28;20283;-64
2023/01/21 12:55:55;;;;;;;35.93;19.03;;;4.80;99.90;;;;;;5026746;28;20204;-64